• Join FlightAware (Why Join?)
  • Login
  • US Flag 
10:10PM EDT


 

Airport Tracker/Info


-or-


 

Live Flight TrackerFlight Track Log ✈ EJA831 ✈ 17-Dec-2013 ✈ KBFM - KVLD

Flight Track Log - Related Links

Times and Time Zones

All times are in EST time to prevent confusion due to time zone crossing. See the EJA831 flight status page for this flight to view local times or setup timezone preferences in your user account.

Time Position Orientation Groundspeed Altitude Reporting Facility
EST Latitude Longitude Course Direction KTS MPH feet Rate Location/Type
04:02PM 30.6222 -87.9919 64° Northeast 212 244 4,600  Level Houston Center
04:03PM 30.6844 -87.9778 11° North 220 253 7,700 2,640 Climbing Houston Center
04:04PM 30.7500 -87.9419 25° Northeast 264 304 10,100 2,220 Climbing Houston Center
04:05PM 30.7606 -87.8336 84° East 335 386 12,400 2,520 Climbing Houston Center
04:06PM 30.6765 -87.0000 85° East  Level Estimated
04:06PM 30.7689 -87.6917 86° East 368 423 15,400  Level Houston Center
04:07PM 30.7171 -86.9039 64° Northeast  Level FlightAware Approximate
04:07PM 30.7747 -87.5925 86° East 344 396 17,400  Level Jacksonville Center
04:08PM 30.7814 -87.4672 86° East 369 425 23,000 1,860 Climbing Jacksonville Center
04:09PM 30.7903 -87.3344 86° East 393 452 21,200 -240 Descending Jacksonville Center
04:10PM 30.7992 -87.1947 86° East 415 478 22,600 900 Climbing Jacksonville Center
04:11PM 30.8083 -87.0500 86° East 433 498 23,000 180 Climbing Jacksonville Center
04:12PM 30.8172 -86.9006 86° East 447 514 23,000  Level Jacksonville Center
04:13PM 30.8239 -86.7558 87° East 453 521 23,000  Level Jacksonville Center
04:15PM 30.8203 -86.4508 91° East 448 516 23,000  Level Jacksonville Center
04:16PM 30.8178 -86.3056 91° East 448 516 23,000  Level Jacksonville Center
04:17PM 30.8133 -86.1603 92° East 448 516 23,000  Level Jacksonville Center
04:18PM 30.8106 -86.0175 91° East 443 510 23,000  Level Jacksonville Center
04:19PM 30.8081 -85.8700 91° East 443 510 23,000  Level Jacksonville Center
04:20PM 30.8050 -85.7247 91° East 443 510 23,000  Level Jacksonville Center
04:21PM 30.8039 -85.5797 90° East 443 510 23,000  Level Jacksonville Center
04:22PM 30.7986 -85.4319 92° East 443 510 23,000  Level Jacksonville Center
04:23PM 30.7994 -85.2869 90° East 443 510 23,000  Level Jacksonville Center
04:24PM 30.8019 -85.1419 89° East 443 510 23,000 -480 Level Jacksonville Center
04:25PM 30.7983 -84.9967 92° East 443 510 22,100 -1,200 Descending Jacksonville Center
04:26PM 30.7983 -84.8564 90° East 443 510 20,600 -1,500 Descending Jacksonville Center
04:27PM 30.7964 -84.7136 91° East 438 504 19,100 -1,500 Descending Jacksonville Center
04:28PM 30.7983 -84.5758 89° East 438 504 17,700 -1,440 Descending Jacksonville Center
04:29PM 30.7936 -84.4428 92° East 427 491 16,300 -1,500 Descending Jacksonville Center
04:30PM 30.7931 -84.3122 90° East 414 476 14,800 -1,500 Descending Jacksonville Center
04:31PM 30.7925 -84.1864 90° East 402 463 13,300 -1,440 Descending Jacksonville Center
04:31PM 30.7911 -84.1067 91° East 383 441 12,400 -1,200 Descending Jacksonville Center
04:32PM 30.7914 -84.0631 90° East 391 450 12,100 -1,020 Descending Jacksonville Center
04:32PM 30.7878 -84.0075 94° East 376 433 11,600 -1,020 Descending Jacksonville Center
04:33PM 30.7903 -83.9444 87° East 378 435 11,100 -600 Descending Jacksonville Center
04:33PM 30.7889 -83.8817 91° East 368 423 11,000 -240 Descending Jacksonville Center
04:34PM 30.7892 -83.8261 90° East 365 420 10,900 -900 Descending Jacksonville Center
04:34PM 30.7875 -83.7703 92° East 359 413 10,100 -1,320 Descending Jacksonville Center
04:35PM 30.7878 -83.7197 90° East 350 403 9,600 -1,560 Descending Jacksonville Center
04:35PM 30.7861 -83.6761 93° East 300 345 8,700 -1,920 Descending Jacksonville Center
04:36PM 30.7844 -83.6206 92° East 323 372 7,700 -1,980 Descending Jacksonville Center
04:36PM 30.7803 -83.5867 98° East 281 323 6,700 -1,800 Descending Jacksonville Center
04:37PM 30.7828 -83.5406 86° East 292 336 5,900 -2,100 Descending Jacksonville Center
04:37PM 30.7767 -83.5117 104° East 266 306 4,800 -2,220 Descending Jacksonville Center
04:38PM 30.7789 -83.4558 87° East 274 315 3,700 -1,920 Descending Jacksonville Center
04:38PM 30.7750 -83.4197 97° East 260 299 2,900 -1,440 Descending Jacksonville Center
04:39PM 30.7708 -83.3786 97° East 254 292 2,300 -840 Descending Jacksonville Center
04:39PM 30.7606 -83.3494 112° Southeast 202 232 2,100 -720 Descending Jacksonville Center
04:40PM 30.7503 -83.3108 107° East 219 252 1,600 -840 Descending Jacksonville Center
04:40PM 30.7419 -83.2961 123° Southeast 157 181 1,200 -240 Descending Jacksonville Center
04:41PM 30.7400 -83.2528 93° East 219 252 1,400 -900 Climbing Jacksonville Center
04:41PM 30.7586 -83.2722 318° Northwest 114 131 300 -2,280 Descending Jacksonville Center
04:43PM 30.7667 -83.2667 337° Northwest  Level FlightAware Approximate